KALB/ALB METAR and TAF weather

Enter ICAO airport designator
Station Type Date Time Source
KALB METAR 2019/04/25 01:51 UTC NOAA

KALB 250151Z 31009G17KT 10SM OVC026 08/01 A2996 RMK AO2 SLP146 T00830011


Station Type Date Time Source
KALB Decoded METAR 2019/04/25 01:51 UTC NOAA

ALBANY INTERNATIONAL AIRPORT, NY, United States (KALB) 42-45N 73-48W
Apr 24, 2019 - 09:51 PM EDT / 2019.04.25 0151 UTC
Wind: from the NW (310 degrees) at 10 MPH (9 KT) gusting to 20 MPH (17 KT):0
Visibility: 10 mile(s):0
Sky conditions: overcast
Temperature: 46.9 F (8.3 C)
Dew Point: 34.0 F (1.1 C)
Relative Humidity: 60%
Pressure (altimeter): 29.96 in. Hg (1014 hPa)
ob: KALB 250151Z 31009G17KT 10SM OVC026 08/01 A2996 RMK AO2 SLP146 T00830011
cycle: 2

Station Type Date Time Source
KALB TAF 2019/04/24 20:42 UTC NOAA

TAF
AMD KALB 241939Z 2420/2518 30015G25KT P6SM BKN035 OVC060
FM250000 30010G18KT P6SM BKN030
FM250500 29005KT P6SM SCT030

Example: see airport list